ロゾー の空港の天気 - METARとTAF

ケインフィールド空港 ( TDCF / DCF ) - ドミニカ国 ロゾー
飛行場実況気象(Metar)
観測時間02/26 18:00 AST (02/26 22:00 UTC)
風向・風速東南東 2m/s
視程10km以上
天気現象弱いしゅう雨
全天の8割程度の雲 雲底高度 490m
全天の8割程度の雲 雲底高度 1220m
気温25℃
湿度78%
気圧1013hPa
METARTDCF 262200Z 12004KT 9999 -SHRA BKN016 BKN040 25/21 Q1013
過去の天気等 Google飛行場航空写真 Wunderground天気予報

過去48時間のMETAR

飛行場予報(TAF)
データがありません